METAR Formatted Surface Weather Observation
Issued by NWS Charleston, WV

Home | Current Version | Previous Version | Text Only | Print | Product List | Glossary On
Versions: 1 2 3 4 5 6 7 8 9 10 11 12 13 14 15 16 17 18 19 20 21 22 23 24 25 26 27 28 29 30 31 32 33 34 35 36
000
SAUS41 KRLX 101700 COR
MTRCRW
METAR KCRW 101654Z VRB05KT 10SM SCT050CB SCT095 BKN300 29/16 A3010
RMK AO2 SLP182 CB ALQDS MOV NE T02940156



USA.gov is the U.S. government's official web portal to all federal, state and local government web resources and services.